sensor_id;sensor_type;location;lat;lon;timestamp;temperature;humidity
77039;DHT22;65970;50.476;4.840;2023-02-16T00:01:47;7.50;59.30
77039;DHT22;65970;50.476;4.840;2023-02-16T00:06:48;7.40;58.40
77039;DHT22;65970;50.476;4.840;2023-02-16T00:11:50;7.40;59.90
77039;DHT22;65970;50.476;4.840;2023-02-16T00:16:52;7.40;58.10
77039;DHT22;65970;50.476;4.840;2023-02-16T00:21:56;7.30;61.50
77039;DHT22;65970;50.476;4.840;2023-02-16T00:26:57;7.30;62.10
77039;DHT22;65970;50.476;4.840;2023-02-16T00:32:01;7.20;61.30
77039;DHT22;65970;50.476;4.840;2023-02-16T00:37:08;7.20;59.50
77039;DHT22;65970;50.476;4.840;2023-02-16T00:42:21;7.20;59.90
77039;DHT22;65970;50.476;4.840;2023-02-16T00:47:39;7.10;58.70
77039;DHT22;65970;50.476;4.840;2023-02-16T00:52:41;7.20;60.20
77039;DHT22;65970;50.476;4.840;2023-02-16T00:57:46;7.20;58.70
77039;DHT22;65970;50.476;4.840;2023-02-16T01:02:48;7.10;58.90
77039;DHT22;65970;50.476;4.840;2023-02-16T01:07:50;7.10;61.70
77039;DHT22;65970;50.476;4.840;2023-02-16T01:12:50;6.90;62.00
77039;DHT22;65970;50.476;4.840;2023-02-16T01:17:51;6.80;64.60
77039;DHT22;65970;50.476;4.840;2023-02-16T01:22:52;6.80;64.20
77039;DHT22;65970;50.476;4.840;2023-02-16T01:27:53;6.80;65.00
77039;DHT22;65970;50.476;4.840;2023-02-16T01:32:53;6.90;65.20
77039;DHT22;65970;50.476;4.840;2023-02-16T01:37:54;6.90;67.30
77039;DHT22;65970;50.476;4.840;2023-02-16T01:43:01;6.90;67.60
77039;DHT22;65970;50.476;4.840;2023-02-16T01:48:11;7.00;66.60
77039;DHT22;65970;50.476;4.840;2023-02-16T01:53:21;7.00;63.90
77039;DHT22;65970;50.476;4.840;2023-02-16T02:03:29;6.90;67.60
77039;DHT22;65970;50.476;4.840;2023-02-16T02:13:54;6.80;67.70
77039;DHT22;65970;50.476;4.840;2023-02-16T02:18:56;6.80;68.10
77039;DHT22;65970;50.476;4.840;2023-02-16T02:45:16;6.90;69.40
77039;DHT22;65970;50.476;4.840;2023-02-16T02:55:45;6.70;66.30
77039;DHT22;65970;50.476;4.840;2023-02-16T03:00:48;6.60;68.60
77039;DHT22;65970;50.476;4.840;2023-02-16T03:05:56;6.50;67.40
77039;DHT22;65970;50.476;4.840;2023-02-16T03:16:37;6.40;68.90
77039;DHT22;65970;50.476;4.840;2023-02-16T03:21:40;6.50;69.60
77039;DHT22;65970;50.476;4.840;2023-02-16T03:26:42;6.50;66.50
77039;DHT22;65970;50.476;4.840;2023-02-16T03:31:43;6.40;67.90
77039;DHT22;65970;50.476;4.840;2023-02-16T03:36:49;6.40;67.40
77039;DHT22;65970;50.476;4.840;2023-02-16T03:41:51;6.30;68.50
77039;DHT22;65970;50.476;4.840;2023-02-16T03:46:53;6.30;69.20
77039;DHT22;65970;50.476;4.840;2023-02-16T03:51:53;6.30;71.20
77039;DHT22;65970;50.476;4.840;2023-02-16T03:56:54;6.30;69.10
77039;DHT22;65970;50.476;4.840;2023-02-16T04:01:54;6.30;70.60
77039;DHT22;65970;50.476;4.840;2023-02-16T04:06:55;6.30;69.40
77039;DHT22;65970;50.476;4.840;2023-02-16T04:11:55;6.50;71.10
77039;DHT22;65970;50.476;4.840;2023-02-16T04:16:56;6.50;69.30
77039;DHT22;65970;50.476;4.840;2023-02-16T04:21:57;6.60;69.70
77039;DHT22;65970;50.476;4.840;2023-02-16T04:26:57;6.60;68.80
77039;DHT22;65970;50.476;4.840;2023-02-16T04:31:58;6.60;68.70
77039;DHT22;65970;50.476;4.840;2023-02-16T04:36:58;6.60;71.40
77039;DHT22;65970;50.476;4.840;2023-02-16T04:41:59;6.40;70.30
77039;DHT22;65970;50.476;4.840;2023-02-16T04:46:59;6.60;72.30
77039;DHT22;65970;50.476;4.840;2023-02-16T04:52:00;6.70;73.90
77039;DHT22;65970;50.476;4.840;2023-02-16T04:57:01;6.80;73.30
77039;DHT22;65970;50.476;4.840;2023-02-16T05:02:01;6.80;73.60
77039;DHT22;65970;50.476;4.840;2023-02-16T05:07:02;6.90;71.60
77039;DHT22;65970;50.476;4.840;2023-02-16T05:12:03;6.80;71.00
77039;DHT22;65970;50.476;4.840;2023-02-16T05:17:03;6.90;72.50
77039;DHT22;65970;50.476;4.840;2023-02-16T05:22:04;6.90;74.50
77039;DHT22;65970;50.476;4.840;2023-02-16T05:27:07;7.00;73.60
77039;DHT22;65970;50.476;4.840;2023-02-16T05:32:08;6.90;72.30
77039;DHT22;65970;50.476;4.840;2023-02-16T05:37:09;6.90;72.20
77039;DHT22;65970;50.476;4.840;2023-02-16T05:42:10;6.90;72.60
77039;DHT22;65970;50.476;4.840;2023-02-16T05:47:11;6.90;75.00
77039;DHT22;65970;50.476;4.840;2023-02-16T05:52:11;6.90;75.80
77039;DHT22;65970;50.476;4.840;2023-02-16T05:57:12;7.00;74.30
77039;DHT22;65970;50.476;4.840;2023-02-16T06:02:12;6.90;73.50
77039;DHT22;65970;50.476;4.840;2023-02-16T06:07:13;6.90;73.10
77039;DHT22;65970;50.476;4.840;2023-02-16T06:12:13;6.90;75.00
77039;DHT22;65970;50.476;4.840;2023-02-16T06:17:14;7.00;75.80
77039;DHT22;65970;50.476;4.840;2023-02-16T06:22:14;7.00;75.60
77039;DHT22;65970;50.476;4.840;2023-02-16T06:27:15;7.10;74.10
77039;DHT22;65970;50.476;4.840;2023-02-16T06:32:16;7.10;75.40
77039;DHT22;65970;50.476;4.840;2023-02-16T06:37:16;7.10;74.20
77039;DHT22;65970;50.476;4.840;2023-02-16T06:42:17;7.20;76.70
77039;DHT22;65970;50.476;4.840;2023-02-16T06:47:17;7.20;76.20
77039;DHT22;65970;50.476;4.840;2023-02-16T06:52:18;7.30;75.90
77039;DHT22;65970;50.476;4.840;2023-02-16T06:57:18;7.20;72.30
77039;DHT22;65970;50.476;4.840;2023-02-16T07:02:19;7.20;74.50
77039;DHT22;65970;50.476;4.840;2023-02-16T07:07:19;7.20;75.50
77039;DHT22;65970;50.476;4.840;2023-02-16T07:12:20;7.30;74.10
77039;DHT22;65970;50.476;4.840;2023-02-16T07:17:21;7.30;75.70
77039;DHT22;65970;50.476;4.840;2023-02-16T07:22:21;7.30;75.10
77039;DHT22;65970;50.476;4.840;2023-02-16T07:27:23;7.30;75.90
77039;DHT22;65970;50.476;4.840;2023-02-16T07:32:24;7.30;73.30
77039;DHT22;65970;50.476;4.840;2023-02-16T07:37:25;7.30;73.00
77039;DHT22;65970;50.476;4.840;2023-02-16T07:42:31;7.30;73.80
77039;DHT22;65970;50.476;4.840;2023-02-16T07:47:32;7.40;76.50
77039;DHT22;65970;50.476;4.840;2023-02-16T07:52:33;7.50;78.30
77039;DHT22;65970;50.476;4.840;2023-02-16T07:57:34;7.60;75.20
77039;DHT22;65970;50.476;4.840;2023-02-16T08:02:37;7.60;75.10
77039;DHT22;65970;50.476;4.840;2023-02-16T08:07:37;7.60;72.60
77039;DHT22;65970;50.476;4.840;2023-02-16T08:12:38;7.50;74.00
77039;DHT22;65970;50.476;4.840;2023-02-16T08:17:39;7.50;73.30
77039;DHT22;65970;50.476;4.840;2023-02-16T08:22:39;7.50;75.00
77039;DHT22;65970;50.476;4.840;2023-02-16T08:27:40;7.50;72.90
77039;DHT22;65970;50.476;4.840;2023-02-16T08:32:41;7.60;74.60
77039;DHT22;65970;50.476;4.840;2023-02-16T08:37:42;7.60;74.70
77039;DHT22;65970;50.476;4.840;2023-02-16T08:42:45;7.60;73.50
77039;DHT22;65970;50.476;4.840;2023-02-16T08:47:46;7.70;76.00
77039;DHT22;65970;50.476;4.840;2023-02-16T08:52:46;7.70;76.10
77039;DHT22;65970;50.476;4.840;2023-02-16T08:57:49;7.70;74.60
77039;DHT22;65970;50.476;4.840;2023-02-16T09:02:50;7.70;76.70
77039;DHT22;65970;50.476;4.840;2023-02-16T09:07:50;7.80;76.30
77039;DHT22;65970;50.476;4.840;2023-02-16T09:12:51;7.80;76.20
77039;DHT22;65970;50.476;4.840;2023-02-16T09:17:52;7.80;78.20
77039;DHT22;65970;50.476;4.840;2023-02-16T09:22:52;7.90;77.70
77039;DHT22;65970;50.476;4.840;2023-02-16T09:27:54;8.00;77.40
77039;DHT22;65970;50.476;4.840;2023-02-16T09:32:55;8.00;78.10
77039;DHT22;65970;50.476;4.840;2023-02-16T09:38:00;8.10;80.10
77039;DHT22;65970;50.476;4.840;2023-02-16T10:14:30;8.80;79.40
77039;DHT22;65970;50.476;4.840;2023-02-16T10:19:52;8.80;80.60
77039;DHT22;65970;50.476;4.840;2023-02-16T10:30:01;8.90;78.00
77039;DHT22;65970;50.476;4.840;2023-02-16T10:35:28;9.00;79.70
77039;DHT22;65970;50.476;4.840;2023-02-16T10:51:32;9.10;84.10
77039;DHT22;65970;50.476;4.840;2023-02-16T11:01:53;9.10;87.30
77039;DHT22;65970;50.476;4.840;2023-02-16T11:07:27;9.20;88.30
77039;DHT22;65970;50.476;4.840;2023-02-16T11:22:46;9.50;85.30
77039;DHT22;65970;50.476;4.840;2023-02-16T11:27:55;9.60;85.00
77039;DHT22;65970;50.476;4.840;2023-02-16T11:49:41;10.10;82.60
77039;DHT22;65970;50.476;4.840;2023-02-16T12:00:06;10.30;82.60
77039;DHT22;65970;50.476;4.840;2023-02-16T13:44:19;12.50;66.20
77039;DHT22;65970;50.476;4.840;2023-02-16T13:49:40;12.50;66.70
77039;DHT22;65970;50.476;4.840;2023-02-16T14:37:27;12.30;71.90
77039;DHT22;65970;50.476;4.840;2023-02-16T14:42:34;12.30;72.10
77039;DHT22;65970;50.476;4.840;2023-02-16T15:04:32;12.10;71.20
77039;DHT22;65970;50.476;4.840;2023-02-16T15:09:34;12.10;71.10
77039;DHT22;65970;50.476;4.840;2023-02-16T15:14:41;12.00;72.40
77039;DHT22;65970;50.476;4.840;2023-02-16T15:19:43;11.90;73.30
77039;DHT22;65970;50.476;4.840;2023-02-16T15:24:54;11.90;73.40
77039;DHT22;65970;50.476;4.840;2023-02-16T15:30:19;11.90;73.00
77039;DHT22;65970;50.476;4.840;2023-02-16T15:35:30;12.00;73.20
77039;DHT22;65970;50.476;4.840;2023-02-16T15:40:32;12.00;73.40
77039;DHT22;65970;50.476;4.840;2023-02-16T15:45:46;12.00;72.50
77039;DHT22;65970;50.476;4.840;2023-02-16T15:51:28;11.90;71.40
77039;DHT22;65970;50.476;4.840;2023-02-16T15:56:45;11.90;71.20
77039;DHT22;65970;50.476;4.840;2023-02-16T16:01:48;11.80;71.40
77039;DHT22;65970;50.476;4.840;2023-02-16T16:07:03;11.80;70.60
77039;DHT22;65970;50.476;4.840;2023-02-16T16:12:13;11.70;70.30
77039;DHT22;65970;50.476;4.840;2023-02-16T17:04:04;11.10;82.10
77039;DHT22;65970;50.476;4.840;2023-02-16T17:09:04;11.10;87.60
77039;DHT22;65970;50.476;4.840;2023-02-16T17:14:08;10.90;92.20
77039;DHT22;65970;50.476;4.840;2023-02-16T17:19:13;10.80;97.60
77039;DHT22;65970;50.476;4.840;2023-02-16T17:24:14;10.70;99.70
77039;DHT22;65970;50.476;4.840;2023-02-16T17:29:15;10.70;99.90
77039;DHT22;65970;50.476;4.840;2023-02-16T17:34:16;10.60;99.90
77039;DHT22;65970;50.476;4.840;2023-02-16T17:39:16;10.50;99.90
77039;DHT22;65970;50.476;4.840;2023-02-16T17:44:17;10.50;99.90
77039;DHT22;65970;50.476;4.840;2023-02-16T17:49:18;10.50;99.90
77039;DHT22;65970;50.476;4.840;2023-02-16T17:54:18;10.40;99.90
77039;DHT22;65970;50.476;4.840;2023-02-16T17:59:19;10.40;99.90
77039;DHT22;65970;50.476;4.840;2023-02-16T18:04:20;10.40;99.90
77039;DHT22;65970;50.476;4.840;2023-02-16T18:09:20;10.40;99.90
77039;DHT22;65970;50.476;4.840;2023-02-16T18:14:21;10.40;99.90
77039;DHT22;65970;50.476;4.840;2023-02-16T18:19:21;10.40;99.90
77039;DHT22;65970;50.476;4.840;2023-02-16T18:24:22;10.40;99.90
77039;DHT22;65970;50.476;4.840;2023-02-16T18:29:22;10.40;99.90
77039;DHT22;65970;50.476;4.840;2023-02-16T18:34:23;10.40;99.90
77039;DHT22;65970;50.476;4.840;2023-02-16T18:39:24;10.30;99.90
77039;DHT22;65970;50.476;4.840;2023-02-16T18:44:24;10.40;99.90
77039;DHT22;65970;50.476;4.840;2023-02-16T18:49:25;10.40;99.90
77039;DHT22;65970;50.476;4.840;2023-02-16T18:54:25;10.40;99.90
77039;DHT22;65970;50.476;4.840;2023-02-16T18:59:26;10.40;99.90
77039;DHT22;65970;50.476;4.840;2023-02-16T19:04:27;10.40;99.90
77039;DHT22;65970;50.476;4.840;2023-02-16T19:09:28;10.40;99.90
77039;DHT22;65970;50.476;4.840;2023-02-16T19:14:28;10.40;99.90
77039;DHT22;65970;50.476;4.840;2023-02-16T19:19:29;10.40;99.90
77039;DHT22;65970;50.476;4.840;2023-02-16T19:24:30;10.40;99.90
77039;DHT22;65970;50.476;4.840;2023-02-16T19:29:30;10.40;99.90
77039;DHT22;65970;50.476;4.840;2023-02-16T19:34:31;10.40;99.90
77039;DHT22;65970;50.476;4.840;2023-02-16T19:39:32;10.50;99.90
77039;DHT22;65970;50.476;4.840;2023-02-16T19:44:34;10.50;99.90
77039;DHT22;65970;50.476;4.840;2023-02-16T19:49:34;10.50;99.90
77039;DHT22;65970;50.476;4.840;2023-02-16T19:54:35;10.50;99.90
77039;DHT22;65970;50.476;4.840;2023-02-16T19:59:35;10.50;99.90
77039;DHT22;65970;50.476;4.840;2023-02-16T20:04:36;10.50;99.90
77039;DHT22;65970;50.476;4.840;2023-02-16T20:09:37;10.50;99.90
77039;DHT22;65970;50.476;4.840;2023-02-16T20:14:37;10.50;99.90
77039;DHT22;65970;50.476;4.840;2023-02-16T20:19:38;10.50;99.90
77039;DHT22;65970;50.476;4.840;2023-02-16T20:24:38;10.50;99.90
77039;DHT22;65970;50.476;4.840;2023-02-16T20:29:39;10.50;99.90
77039;DHT22;65970;50.476;4.840;2023-02-16T20:34:39;10.50;99.90
77039;DHT22;65970;50.476;4.840;2023-02-16T20:39:40;10.50;99.90
77039;DHT22;65970;50.476;4.840;2023-02-16T20:44:41;10.60;99.90
77039;DHT22;65970;50.476;4.840;2023-02-16T20:49:41;10.60;99.90
77039;DHT22;65970;50.476;4.840;2023-02-16T20:54:42;10.60;99.90
77039;DHT22;65970;50.476;4.840;2023-02-16T20:59:43;10.60;99.90
77039;DHT22;65970;50.476;4.840;2023-02-16T21:04:43;10.60;99.90
77039;DHT22;65970;50.476;4.840;2023-02-16T21:09:44;10.70;99.90
77039;DHT22;65970;50.476;4.840;2023-02-16T21:14:44;10.70;99.90
77039;DHT22;65970;50.476;4.840;2023-02-16T21:19:45;10.70;99.90
77039;DHT22;65970;50.476;4.840;2023-02-16T21:24:45;10.70;99.90
77039;DHT22;65970;50.476;4.840;2023-02-16T21:29:47;10.70;99.90
77039;DHT22;65970;50.476;4.840;2023-02-16T21:34:47;10.70;99.90
77039;DHT22;65970;50.476;4.840;2023-02-16T21:39:48;10.80;99.90
77039;DHT22;65970;50.476;4.840;2023-02-16T21:44:48;10.70;99.90
77039;DHT22;65970;50.476;4.840;2023-02-16T21:49:49;10.80;99.90
77039;DHT22;65970;50.476;4.840;2023-02-16T21:54:50;10.80;99.90
77039;DHT22;65970;50.476;4.840;2023-02-16T21:59:50;10.80;99.90
77039;DHT22;65970;50.476;4.840;2023-02-16T22:04:51;10.80;99.90
77039;DHT22;65970;50.476;4.840;2023-02-16T22:09:52;10.80;99.90
77039;DHT22;65970;50.476;4.840;2023-02-16T22:14:52;10.80;99.90
77039;DHT22;65970;50.476;4.840;2023-02-16T22:19:53;10.80;99.90
77039;DHT22;65970;50.476;4.840;2023-02-16T22:24:53;10.70;99.90
77039;DHT22;65970;50.476;4.840;2023-02-16T22:29:54;10.70;99.90
77039;DHT22;65970;50.476;4.840;2023-02-16T22:34:54;10.70;99.90
77039;DHT22;65970;50.476;4.840;2023-02-16T22:39:55;10.70;99.90
77039;DHT22;65970;50.476;4.840;2023-02-16T22:44:55;10.70;99.90
77039;DHT22;65970;50.476;4.840;2023-02-16T22:49:56;10.70;99.90
77039;DHT22;65970;50.476;4.840;2023-02-16T22:54:56;10.70;99.90
77039;DHT22;65970;50.476;4.840;2023-02-16T22:59:57;10.70;99.90
77039;DHT22;65970;50.476;4.840;2023-02-16T23:04:58;10.70;99.90
77039;DHT22;65970;50.476;4.840;2023-02-16T23:09:58;10.70;99.90
77039;DHT22;65970;50.476;4.840;2023-02-16T23:14:59;10.70;99.90
77039;DHT22;65970;50.476;4.840;2023-02-16T23:19:59;10.70;99.90
77039;DHT22;65970;50.476;4.840;2023-02-16T23:25:01;10.70;99.90
77039;DHT22;65970;50.476;4.840;2023-02-16T23:30:02;10.70;99.90
77039;DHT22;65970;50.476;4.840;2023-02-16T23:35:02;10.70;99.90
77039;DHT22;65970;50.476;4.840;2023-02-16T23:40:04;10.70;99.90
77039;DHT22;65970;50.476;4.840;2023-02-16T23:45:05;10.70;99.90
77039;DHT22;65970;50.476;4.840;2023-02-16T23:50:06;10.70;99.90
77039;DHT22;65970;50.476;4.840;2023-02-16T23:55:07;10.70;99.90
